OINN  Noshahr Airport

Add Bookmark

Iran

Status IATA
Operational NSH
Latitude Longitude
36° 39' 47" N 51° 27' 52" E
36.663300 51.464699
Local (DST + 5) UTC (GMT + 4)
Oct 24, 2014 10:30 Oct 24, 2014 07:00
Sunrise-Sunset Local UTC
Begin Civil Twilight 05:52 02:22
Sunrise 06:18 02:48
Sunset 05:17 13:47
End Civil Twilight 05:44 14:14

Current Weather

METAR Observed MVFR
OINN 240600Z 32010KT 9999 BKN026 19/17 Q1012 Fri, Oct 24, 2014 @ 06:00 UTC
(1 Hour ago)
Marginal Visual Flight Rules
Wind Visibility Clouds Conditions
320° at 10 knots (19 kph) 10 km or more
  • Broken at 2,600' AGL
  • No significant weather
Temperatures Readings Precipitation
Current Temp 19°C (66°F)
Dewpoint 17°C (63°F)
Humidity 88%
Altimeter 29.88"Hg
Sea Level Pressure 1012mb
None Recorded

Additional weather within a 92.6km radius of OINN

Map ICAO Location
OINR 75km W (292°)

24 Hour Weather History

Loading
-

24 Hour Weather Graphs

Loading
-

CheckWX.com is intended as a tool to help pilots better visualize weather data. It is not intended as a substitute for an official weather briefing obtained from a Flight Service Station. CheckWX.com does not meet the FAA requirements for an official pre-flight weather briefing. Therefore, it's important that pilots still call and obtain an official FSS pre-flight weather briefing.